Time;durP1;ratioP1;P1;durP2;ratioP2;P2;SDS_P1;SDS_P2;PMS_P1;PMS_P2;Temp;Humidity;BMP_temperature;BMP_pressure;BME280_temperature;BME280_humidity;BME280_pressure;Samples;Min_cycle;Max_cycle;Signal;HPM_P1;HPM_P2
2021/01/03 00:02:03;;;;;;;31.90;19.70;;;;;;;3.94;76.75;101408.00;5035507;28;20421;-70
2021/01/03 00:04:28;;;;;;;38.17;21.17;;;;;;;3.80;77.01;101412.50;5036913;28;20166;-71
2021/01/03 00:06:54;;;;;;;40.23;23.40;;;;;;;4.77;73.23;101408.34;5039677;28;20435;-70
2021/01/03 00:09:20;;;;;;;34.27;19.80;;;;;;;3.83;76.34;101412.66;5040266;28;20419;-71
2021/01/03 00:11:45;;;;;;;38.80;22.90;;;;;;;4.50;74.38;101407.16;5040855;28;20379;-71
2021/01/03 00:14:11;;;;;;;33.93;21.90;;;;;;;4.08;75.26;101406.09;5040492;28;20424;-70
2021/01/03 00:16:36;;;;;;;33.07;21.13;;;;;;;4.52;74.32;101408.13;5040302;28;20178;-71
2021/01/03 00:19:03;;;;;;;33.07;20.90;;;;;;;4.66;72.80;101405.28;5040458;28;20190;-71
2021/01/03 00:21:28;;;;;;;31.60;19.60;;;;;;;4.97;72.77;101409.22;5040277;28;20169;-71
2021/01/03 00:23:53;;;;;;;33.53;22.53;;;;;;;4.84;72.12;101410.38;5040074;28;20679;-70
2021/01/03 00:26:19;;;;;;;33.40;22.50;;;;;;;4.90;72.40;101405.47;5040540;28;20656;-69
2021/01/03 00:28:44;;;;;;;32.43;21.67;;;;;;;4.78;73.14;101404.94;5038785;28;20428;-71
2021/01/03 00:31:10;;;;;;;39.37;22.87;;;;;;;4.53;73.85;101409.00;5039724;28;20201;-71
2021/01/03 00:33:35;;;;;;;37.63;23.60;;;;;;;4.84;73.44;101415.53;5040401;28;20438;-71
2021/01/03 00:36:01;;;;;;;36.03;22.43;;;;;;;4.25;75.26;101415.50;5040013;28;20435;-71
2021/01/03 00:38:26;;;;;;;35.70;24.10;;;;;;;5.09;73.25;101416.59;5039948;28;20201;-69
2021/01/03 00:40:52;;;;;;;39.10;23.03;;;;;;;4.59;74.49;101414.44;5040335;28;20173;-71
2021/01/03 00:43:17;;;;;;;35.17;22.97;;;;;;;4.93;73.57;101426.28;5040022;28;20540;-69
2021/01/03 00:45:42;;;;;;;44.60;24.90;;;;;;;4.93;72.93;101421.09;5039908;28;20169;-69
2021/01/03 00:48:09;;;;;;;39.07;24.07;;;;;;;4.93;73.58;101417.66;5040068;28;20647;-69
2021/01/03 00:50:34;;;;;;;39.23;24.80;;;;;;;4.95;73.68;101424.66;5039703;28;20229;-68
2021/01/03 00:53:00;;;;;;;39.43;24.00;;;;;;;4.87;74.40;101432.06;5039701;28;20413;-67
2021/01/03 00:55:25;;;;;;;42.23;25.73;;;;;;;5.36;71.90;101422.94;5040016;28;20228;-68
2021/01/03 00:57:51;;;;;;;38.10;23.47;;;;;;;4.86;73.88;101430.28;5039733;28;20174;-68
2021/01/03 01:00:24;;;;;;;47.40;27.57;;;;;;;5.33;72.35;101420.22;5039129;28;20260;-68
2021/01/03 01:02:50;;;;;;;43.80;26.50;;;;;;;5.48;71.16;101429.44;5040072;28;20166;-69
2021/01/03 01:05:17;;;;;;;42.60;24.17;;;;;;;4.85;72.31;101430.22;5039636;28;20409;-69
2021/01/03 01:07:42;;;;;;;43.93;25.27;;;;;;;4.10;76.06;101428.56;5039585;28;20185;-68
2021/01/03 01:10:12;;;;;;;41.73;22.97;;;;;;;4.10;75.74;101438.00;5039680;28;20409;-68
2021/01/03 01:12:38;;;;;;;36.40;23.47;;;;;;;4.15;75.73;101446.84;5039500;28;20174;-68
2021/01/03 01:15:05;;;;;;;40.00;25.23;;;;;;;4.28;76.25;101444.03;5039449;28;20417;-69
2021/01/03 01:17:31;;;;;;;48.37;28.13;;;;;;;4.75;74.23;101433.19;5039301;28;20170;-69
2021/01/03 01:19:56;;;;;;;41.50;25.00;;;;;;;5.29;73.24;101438.13;5038983;28;20881;-68
2021/01/03 01:22:21;;;;;;;43.30;23.10;;;;;;;4.80;73.76;101439.47;5039220;28;20174;-68
2021/01/03 01:24:46;;;;;;;43.60;25.13;;;;;;;4.34;76.22;101443.41;5039131;28;20222;-68
2021/01/03 01:27:12;;;;;;;39.07;25.40;;;;;;;4.87;73.59;101436.31;5039195;28;20600;-68
2021/01/03 01:29:37;;;;;;;40.03;24.57;;;;;;;4.70;75.46;101438.19;5039271;28;20197;-69
2021/01/03 01:32:02;;;;;;;45.47;24.73;;;;;;;4.67;74.88;101430.31;5039208;28;20181;-68
2021/01/03 01:34:28;;;;;;;39.60;25.47;;;;;;;4.27;75.54;101439.66;5039227;28;20201;-68
2021/01/03 01:36:53;;;;;;;42.90;27.03;;;;;;;5.01;73.22;101440.41;5039333;28;20166;-67
2021/01/03 01:39:18;;;;;;;41.60;25.50;;;;;;;5.09;72.92;101433.00;5038549;28;20225;-67
2021/01/03 01:41:43;;;;;;;38.60;23.70;;;;;;;5.01;72.28;101440.41;5038866;28;20170;-68
2021/01/03 01:44:09;;;;;;;42.77;25.10;;;;;;;4.74;73.28;101445.25;5039132;28;20257;-69
2021/01/03 01:46:45;;;;;;;44.80;25.27;;;;;;;4.95;72.41;101435.00;5038136;28;20178;-67
2021/01/03 01:49:12;;;;;;;49.07;25.67;;;;;;;4.74;73.50;101434.03;5037961;28;20184;-68
2021/01/03 01:51:41;;;;;;;42.63;25.03;;;;;;;4.42;74.68;101436.91;5037871;28;20416;-66
2021/01/03 01:54:13;;;;;;;41.20;24.70;;;;;;;5.32;71.73;101433.09;5038726;28;20440;-68
2021/01/03 01:57:04;;;;;;;39.10;23.60;;;;;;;4.45;75.12;101441.34;5038680;28;20459;-69
2021/01/03 01:59:48;;;;;;;41.60;24.87;;;;;;;5.12;72.68;101432.25;5038341;28;20467;-69
2021/01/03 02:02:21;;;;;;;42.63;23.83;;;;;;;4.46;74.90;101437.94;5038448;28;20503;-69
2021/01/03 02:04:52;;;;;;;50.50;26.40;;;;;;;4.59;74.67;101436.78;5037875;28;20456;-68
2021/01/03 02:07:27;;;;;;;50.00;25.90;;;;;;;5.27;71.29;101432.03;5038536;28;20409;-67
2021/01/03 02:10:24;;;;;;;44.13;26.93;;;;;;;5.12;71.89;101432.25;5037453;28;20491;-67
2021/01/03 02:13:04;;;;;;;43.60;26.50;;;;;;;4.78;73.52;101433.38;5038358;28;20401;-68
2021/01/03 02:15:31;;;;;;;42.40;24.20;;;;;;;4.19;76.09;101429.00;5038360;28;20475;-67
2021/01/03 02:17:56;;;;;;;45.33;26.77;;;;;;;4.93;74.55;101428.00;5038139;28;20511;-66
2021/01/03 02:20:26;;;;;;;39.70;26.00;;;;;;;5.13;72.82;101431.41;5037953;28;20595;-67
2021/01/03 02:22:56;;;;;;;43.90;25.97;;;;;;;4.50;74.75;101434.69;5037870;28;20548;-67
2021/01/03 02:25:22;;;;;;;44.90;25.87;;;;;;;4.54;75.30;101434.88;5037400;28;20567;-67
2021/01/03 02:28:06;;;;;;;38.57;22.87;;;;;;;4.02;77.12;101441.09;5037547;28;20472;-67
2021/01/03 02:30:31;;;;;;;46.13;25.43;;;;;;;4.55;74.54;101433.22;5037003;28;20416;-67
2021/01/03 02:33:15;;;;;;;46.97;26.43;;;;;;;5.19;72.15;101427.38;5037133;28;20428;-68
2021/01/03 02:35:42;;;;;;;43.83;25.80;;;;;;;5.05;72.69;101437.13;5037908;28;20551;-68
2021/01/03 02:38:08;;;;;;;50.07;27.70;;;;;;;4.90;73.04;101433.91;5037000;28;20424;-68
2021/01/03 02:40:33;;;;;;;51.20;25.47;;;;;;;4.95;73.60;101444.44;5037625;28;20413;-69
2021/01/03 02:42:59;;;;;;;47.73;26.33;;;;;;;5.10;73.04;101437.34;5037079;28;20559;-69
2021/01/03 02:45:27;;;;;;;40.73;25.37;;;;;;;4.12;76.59;101438.97;5038099;28;20189;-68
2021/01/03 02:47:53;;;;;;;42.17;24.30;;;;;;;3.94;76.78;101445.00;5037665;28;20177;-68
2021/01/03 02:50:22;;;;;;;43.90;26.30;;;;;;;4.25;77.15;101443.91;5036755;28;20841;-68
2021/01/03 02:52:47;;;;;;;45.57;26.00;;;;;;;4.20;75.68;101450.53;5038211;28;20404;-68
2021/01/03 02:55:14;;;;;;;43.03;24.50;;;;;;;3.75;77.56;101435.50;5037670;28;20872;-68
2021/01/03 02:57:39;;;;;;;45.40;26.20;;;;;;;4.10;77.39;101441.47;5037702;28;20166;-68
2021/01/03 03:00:07;;;;;;;43.97;26.20;;;;;;;4.18;77.17;101436.66;5037595;28;20460;-69
2021/01/03 03:02:32;;;;;;;46.50;27.23;;;;;;;4.13;77.23;101433.88;5037553;28;20418;-70
2021/01/03 03:04:58;;;;;;;42.33;25.50;;;;;;;4.30;75.91;101441.50;5037517;28;20427;-68
2021/01/03 03:07:23;;;;;;;44.73;26.60;;;;;;;4.49;74.92;101433.81;5037869;28;20166;-68
2021/01/03 03:09:48;;;;;;;50.37;27.07;;;;;;;4.13;76.96;101435.59;5037219;28;20189;-68
2021/01/03 03:12:14;;;;;;;46.10;25.80;;;;;;;4.25;75.92;101432.66;5037373;28;20488;-69
2021/01/03 03:14:39;;;;;;;52.30;26.10;;;;;;;4.97;74.38;101429.88;5037701;28;20178;-68
2021/01/03 03:17:06;;;;;;;44.03;26.63;;;;;;;4.84;73.74;101431.94;5037421;28;20170;-68
2021/01/03 03:19:31;;;;;;;49.43;26.43;;;;;;;4.00;76.96;101441.84;5037223;28;20280;-68
2021/01/03 03:21:56;;;;;;;46.43;25.20;;;;;;;4.09;76.64;101436.25;5036903;28;20781;-68
2021/01/03 03:24:22;;;;;;;45.00;27.67;;;;;;;5.01;73.71;101435.25;5037119;28;20232;-68
2021/01/03 03:26:54;;;;;;;42.83;26.33;;;;;;;4.90;73.89;101428.72;5037165;28;20248;-68
2021/01/03 03:29:20;;;;;;;48.43;28.30;;;;;;;4.98;74.33;101424.78;5037401;28;20173;-68
2021/01/03 03:31:46;;;;;;;46.17;25.37;;;;;;;4.24;76.09;101433.50;5037247;28;20409;-68
2021/01/03 03:34:11;;;;;;;45.93;26.37;;;;;;;4.23;76.44;101440.34;5037228;28;20645;-69
2021/01/03 03:36:36;;;;;;;46.20;27.40;;;;;;;4.67;75.75;101425.13;5036717;28;20158;-68
2021/01/03 03:39:02;;;;;;;42.03;25.13;;;;;;;5.15;73.26;101422.03;5037177;28;20607;-69
2021/01/03 03:41:27;;;;;;;43.33;25.73;;;;;;;4.30;76.29;101424.34;5041343;28;20166;-67
2021/01/03 03:43:52;;;;;;;45.33;25.50;;;;;;;5.49;72.22;101419.13;5041654;28;20461;-68
2021/01/03 03:46:18;;;;;;;43.37;24.87;;;;;;;4.85;73.92;101422.47;5041085;28;20174;-67
2021/01/03 03:48:44;;;;;;;44.60;25.33;;;;;;;5.04;72.54;101418.97;5041112;28;20166;-68
2021/01/03 03:51:14;;;;;;;40.40;26.83;;;;;;;5.24;73.49;101425.00;5041188;28;20166;-68
2021/01/03 03:53:40;;;;;;;38.20;24.20;;;;;;;4.48;74.60;101420.81;5040848;28;20511;-68
2021/01/03 03:56:05;;;;;;;41.43;25.63;;;;;;;4.45;75.30;101420.69;5040883;28;20504;-69
2021/01/03 03:58:30;;;;;;;41.97;22.27;;;;;;;4.00;76.50;101427.22;5041073;28;20581;-69
2021/01/03 04:00:55;;;;;;;40.20;22.57;;;;;;;4.23;76.99;101435.19;5040477;28;20244;-69
2021/01/03 04:03:21;;;;;;;42.10;24.33;;;;;;;4.12;76.32;101426.06;5040831;28;20166;-69
2021/01/03 04:05:46;;;;;;;36.23;21.73;;;;;;;4.26;75.79;101425.00;5041059;28;20586;-68
2021/01/03 04:08:14;;;;;;;43.07;21.43;;;;;;;4.47;75.30;101425.09;5040762;28;20553;-68
2021/01/03 04:10:40;;;;;;;36.60;21.50;;;;;;;3.84;77.01;101435.06;5040485;28;20178;-69
2021/01/03 04:13:07;;;;;;;35.93;22.40;;;;;;;4.62;74.94;101427.50;5040940;28;20822;-68
2021/01/03 04:15:32;;;;;;;37.60;21.57;;;;;;;4.41;75.66;101429.09;5040466;28;20455;-68
2021/01/03 04:17:58;;;;;;;37.33;21.70;;;;;;;4.16;76.46;101431.44;5040329;28;20814;-68
2021/01/03 04:20:23;;;;;;;35.20;22.07;;;;;;;4.43;75.06;101423.19;5040654;28;20202;-68
2021/01/03 04:22:48;;;;;;;35.10;21.67;;;;;;;4.30;75.40;101426.03;5040413;28;20186;-68
2021/01/03 04:25:15;;;;;;;37.87;21.60;;;;;;;4.41;75.45;101429.09;5040115;28;20241;-68
2021/01/03 04:27:41;;;;;;;34.10;20.50;;;;;;;4.63;74.43;101426.69;5040695;28;20212;-69
2021/01/03 04:30:07;;;;;;;32.50;19.47;;;;;;;3.99;75.27;101425.50;5039079;28;20440;-69
2021/01/03 04:32:32;;;;;;;33.33;20.80;;;;;;;4.27;75.51;101426.75;5040257;28;20174;-68
2021/01/03 04:34:58;;;;;;;34.70;20.00;;;;;;;4.54;73.27;101418.53;5040485;28;20408;-68
2021/01/03 04:37:23;;;;;;;31.27;17.97;;;;;;;4.24;74.59;101418.03;5040286;28;20175;-67
2021/01/03 04:39:48;;;;;;;30.47;19.60;;;;;;;4.78;72.85;101415.28;5040056;28;20260;-67
2021/01/03 04:42:17;;;;;;;28.27;17.60;;;;;;;4.11;74.33;101424.28;5040517;28;20210;-67
2021/01/03 04:44:45;;;;;;;27.87;17.77;;;;;;;4.43;73.27;101418.03;5040128;28;20224;-69
2021/01/03 04:47:14;;;;;;;28.73;18.63;;;;;;;4.14;74.63;101417.59;5039378;28;20435;-67
2021/01/03 04:49:46;;;;;;;32.63;20.10;;;;;;;4.73;72.87;101422.81;5040395;28;20451;-68
2021/01/03 04:52:39;;;;;;;30.03;19.10;;;;;;;4.92;71.28;101414.16;5038572;28;20503;-68
2021/01/03 04:55:12;;;;;;;31.23;17.80;;;;;;;4.88;72.23;101422.59;5039651;28;20436;-68
2021/01/03 04:57:47;;;;;;;30.63;18.30;;;;;;;4.34;74.10;101433.09;5040607;28;20417;-68
2021/01/03 05:00:15;;;;;;;28.90;17.30;;;;;;;4.77;72.41;101431.59;5039543;28;20463;-68
2021/01/03 05:03:02;;;;;;;31.70;17.90;;;;;;;4.65;73.30;101430.19;5039750;28;20420;-69
2021/01/03 05:05:44;;;;;;;32.70;19.20;;;;;;;5.40;70.58;101430.00;5039666;28;20532;-68
2021/01/03 05:08:15;;;;;;;27.23;17.60;;;;;;;4.10;75.89;101440.56;5039563;28;20429;-68
2021/01/03 05:10:41;;;;;;;32.47;19.33;;;;;;;4.32;74.92;101438.19;5039390;28;20428;-68
2021/01/03 05:13:24;;;;;;;28.30;16.37;;;;;;;3.96;75.50;101439.94;5039578;28;20421;-68
2021/01/03 05:15:50;;;;;;;24.50;14.80;;;;;;;3.75;75.88;101435.50;5040330;28;20616;-68
2021/01/03 05:18:15;;;;;;;24.57;16.30;;;;;;;3.98;74.25;101441.78;5039013;28;20467;-68
2021/01/03 05:20:41;;;;;;;25.90;14.73;;;;;;;4.02;74.38;101440.22;5039442;28;20189;-67
2021/01/03 05:23:18;;;;;;;21.80;13.77;;;;;;;3.86;75.15;101446.34;5039002;28;20269;-69
2021/01/03 05:25:45;;;;;;;19.00;14.30;;;;;;;3.86;75.18;101448.94;5039223;28;21389;-68
2021/01/03 05:28:20;;;;;;;23.27;14.77;;;;;;;4.25;74.23;101446.47;5039119;28;20463;-68
2021/01/03 05:30:46;;;;;;;20.43;13.40;;;;;;;4.67;72.54;101450.97;5039115;28;20433;-69
2021/01/03 05:33:15;;;;;;;20.67;14.80;;;;;;;4.09;74.21;101451.72;5038325;28;20413;-69
2021/01/03 05:35:44;;;;;;;18.67;13.00;;;;;;;4.33;72.67;101452.88;5038987;28;20609;-68
2021/01/03 05:38:10;;;;;;;26.53;16.57;;;;;;;4.06;74.40;101452.47;5038976;28;20868;-68
2021/01/03 05:40:41;;;;;;;20.10;14.57;;;;;;;4.81;71.36;101456.75;5038364;28;20452;-68
2021/01/03 05:43:25;;;;;;;24.13;14.77;;;;;;;4.33;73.51;101460.63;5039100;28;20420;-68
2021/01/03 05:46:18;;;;;;;18.57;12.67;;;;;;;3.95;75.34;101463.94;5038987;28;20428;-68
2021/01/03 05:48:56;;;;;;;22.90;15.43;;;;;;;4.40;73.52;101464.38;5038190;28;20445;-68
2021/01/03 05:51:38;;;;;;;22.03;15.27;;;;;;;4.70;72.85;101464.88;5038095;28;20792;-67
2021/01/03 05:54:10;;;;;;;20.90;13.97;;;;;;;3.69;76.21;101479.94;5038836;28;20463;-68
2021/01/03 05:56:36;;;;;;;21.67;15.40;;;;;;;4.70;72.79;101467.47;5038962;28;20524;-68
2021/01/03 05:59:02;;;;;;;23.30;15.30;;;;;;;4.08;74.56;101471.47;5038371;28;20884;-68
2021/01/03 06:01:31;;;;;;;22.63;16.10;;;;;;;4.14;75.51;101476.94;5037728;28;20251;-68
2021/01/03 06:04:13;;;;;;;22.10;15.00;;;;;;;3.94;76.36;101480.22;5037864;28;20559;-68
2021/01/03 06:07:00;;;;;;;22.27;14.60;;;;;;;4.27;74.17;101474.94;5037747;28;20698;-68
2021/01/03 06:09:39;;;;;;;19.57;14.77;;;;;;;3.78;76.49;101479.50;5037601;28;20445;-68
2021/01/03 06:12:25;;;;;;;19.50;14.77;;;;;;;3.88;76.52;101478.25;5038255;28;20421;-69
2021/01/03 06:14:53;;;;;;;22.00;14.47;;;;;;;4.17;74.98;101482.22;5038385;28;20837;-68
2021/01/03 06:17:53;;;;;;;21.30;13.93;;;;;;;3.82;76.37;101485.69;5038331;28;20479;-69
2021/01/03 06:20:25;;;;;;;18.83;14.23;;;;;;;4.18;76.03;101477.94;5037356;28;20468;-69
2021/01/03 06:22:53;;;;;;;19.80;14.10;;;;;;;4.45;75.67;101472.31;5038207;28;20417;-68
2021/01/03 06:25:41;;;;;;;19.80;14.07;;;;;;;3.96;75.44;101486.38;5135989;27;20942;-67
2021/01/03 06:28:22;;;;;;;19.50;12.50;;;;;;;3.55;77.38;101498.97;5135130;27;20416;-67
2021/01/03 06:31:14;;;;;;;19.03;11.80;;;;;;;3.67;76.62;101485.81;5135607;27;20840;-67
2021/01/03 06:34:12;;;;;;;18.50;13.30;;;;;;;3.62;76.11;101493.31;5135032;28;20670;-69
2021/01/03 06:37:09;;;;;;;15.93;10.93;;;;;;;3.42;77.83;101502.63;5109294;27;20495;-68
2021/01/03 06:39:54;;;;;;;22.50;13.70;;;;;;;3.82;76.28;101504.63;5130404;27;20463;-67
2021/01/03 06:42:37;;;;;;;18.10;13.03;;;;;;;4.47;73.33;101501.69;5134737;28;20407;-67
2021/01/03 06:45:15;;;;;;;19.97;13.87;;;;;;;4.29;73.80;101507.75;5134533;27;20498;-69
2021/01/03 06:47:58;;;;;;;18.93;13.90;;;;;;;4.51;73.85;101501.88;5135402;27;20416;-68
2021/01/03 06:50:39;;;;;;;16.50;11.67;;;;;;;4.00;75.81;101508.91;5135343;27;20401;-68
2021/01/03 06:53:27;;;;;;;19.57;14.07;;;;;;;4.46;73.74;101512.81;5135424;27;20412;-68
2021/01/03 06:56:10;;;;;;;20.23;13.23;;;;;;;3.82;74.78;101508.91;5134618;27;20448;-69
2021/01/03 06:58:52;;;;;;;20.60;14.80;;;;;;;4.88;72.23;101510.44;5169119;27;20489;-69
2021/01/03 07:01:21;;;;;;;24.17;14.50;;;;;;;4.53;73.24;101509.69;5135045;27;20449;-69
2021/01/03 07:03:49;;;;;;;21.70;14.80;;;;;;;5.23;70.06;101503.38;5168920;27;20513;-69
2021/01/03 07:06:15;;;;;;;21.00;14.90;;;;;;;4.62;72.91;101504.97;5134275;27;20821;-70
2021/01/03 07:08:48;;;;;;;17.37;13.20;;;;;;;4.24;72.99;101504.06;5134236;27;20427;-69
2021/01/03 07:11:40;;;;;;;19.20;14.37;;;;;;;4.88;70.84;101516.50;5168452;27;20178;-68
2021/01/03 07:14:12;;;;;;;19.60;13.67;;;;;;;4.50;73.13;101512.16;5134918;27;20412;-68
2021/01/03 07:16:48;;;;;;;20.00;14.90;;;;;;;4.23;72.94;101510.03;5133926;27;20456;-67
2021/01/03 07:19:21;;;;;;;18.07;13.97;;;;;;;4.44;73.00;101507.59;5134712;27;20420;-68
2021/01/03 07:21:46;;;;;;;21.50;13.63;;;;;;;4.02;74.07;101513.34;5134014;27;20421;-69
2021/01/03 07:24:27;;;;;;;18.57;13.10;;;;;;;4.05;73.88;101503.16;5134374;28;20881;-69
2021/01/03 07:27:20;;;;;;;22.63;15.10;;;;;;;3.98;74.42;101505.41;5134815;27;20159;-68
2021/01/03 07:29:50;;;;;;;21.27;15.07;;;;;;;4.17;72.79;101508.03;5134595;27;20458;-68
2021/01/03 07:32:17;;;;;;;19.60;13.87;;;;;;;4.88;71.42;101500.09;5134497;27;20810;-68
2021/01/03 07:34:48;;;;;;;17.77;12.70;;;;;;;3.63;73.76;101520.88;5132881;27;20408;-68
2021/01/03 07:37:18;;;;;;;18.17;13.83;;;;;;;3.95;73.93;101521.59;5120715;28;20834;-68
2021/01/03 07:39:59;;;;;;;20.10;14.60;;;;;;;4.34;72.55;101518.28;5120611;28;20443;-69
2021/01/03 07:42:27;;;;;;;19.83;13.27;;;;;;;4.32;72.29;101512.19;5119881;28;20417;-68
2021/01/03 07:44:53;;;;;;;19.90;13.77;;;;;;;4.43;71.47;101515.28;5120590;28;20457;-68
2021/01/03 07:47:49;;;;;;;15.10;11.73;;;;;;;3.95;71.61;101521.59;5120541;27;20696;-67
2021/01/03 07:50:17;;;;;;;17.60;12.77;;;;;;;4.04;72.05;101522.03;5106785;28;20445;-68
2021/01/03 07:52:52;;;;;;;18.07;12.37;;;;;;;4.01;71.16;101521.88;5120646;28;20488;-68
2021/01/03 07:55:34;;;;;;;16.30;12.47;;;;;;;4.21;69.69;101524.56;5120332;28;20413;-69
2021/01/03 07:58:16;;;;;;;13.07;9.67;;;;;;;3.56;72.26;101523.97;5120398;28;20416;-68
2021/01/03 08:00:44;;;;;;;17.23;11.97;;;;;;;4.31;70.17;101518.16;5120183;28;20421;-68
2021/01/03 08:03:15;;;;;;;14.60;10.80;;;;;;;4.11;69.91;101523.22;5120024;28;20413;-68
2021/01/03 08:05:42;;;;;;;15.07;11.80;;;;;;;4.47;69.16;101518.06;5120291;28;20422;-69
2021/01/03 08:08:17;;;;;;;13.43;10.33;;;;;;;4.02;69.66;101509.91;5120101;28;20740;-69
2021/01/03 08:10:43;;;;;;;16.47;11.13;;;;;;;4.09;69.63;101511.09;5120020;28;20814;-68
2021/01/03 08:13:21;;;;;;;15.20;11.13;;;;;;;4.21;69.82;101524.56;5120033;28;20470;-68
2021/01/03 08:15:47;;;;;;;14.90;10.83;;;;;;;4.53;68.63;101522.63;5120125;28;20423;-68
2021/01/03 08:18:15;;;;;;;15.07;10.90;;;;;;;4.66;67.35;101518.91;5119208;28;20439;-68
2021/01/03 08:20:41;;;;;;;14.07;10.57;;;;;;;3.78;70.71;101527.63;5119990;28;20175;-68
2021/01/03 08:23:25;;;;;;;14.10;10.93;;;;;;;3.97;70.25;101530.28;5119680;28;20690;-68
2021/01/03 08:26:23;;;;;;;14.83;11.10;;;;;;;4.57;68.47;101521.06;5119839;28;20203;-67
2021/01/03 08:29:07;;;;;;;14.77;11.47;;;;;;;4.01;71.14;101526.19;5085766;28;20841;-68
2021/01/03 08:31:42;;;;;;;13.80;10.37;;;;;;;3.78;71.00;101531.06;5119758;28;20421;-68
2021/01/03 08:34:07;;;;;;;15.43;11.30;;;;;;;3.84;71.08;101527.91;5118793;28;20424;-68
2021/01/03 08:36:36;;;;;;;14.17;10.80;;;;;;;3.98;70.36;101526.91;5119541;28;20790;-68
2021/01/03 08:39:13;;;;;;;14.73;10.60;;;;;;;4.02;71.14;101533.13;5119413;28;20258;-68
2021/01/03 08:41:53;;;;;;;16.50;11.10;;;;;;;3.90;72.03;101530.81;5119561;27;20491;-69
2021/01/03 08:44:39;;;;;;;14.60;11.17;;;;;;;4.55;69.67;101528.75;5119274;28;20456;-69
2021/01/03 08:47:11;;;;;;;11.73;9.57;;;;;;;3.43;72.06;101539.59;5117704;28;20591;-68
2021/01/03 08:49:38;;;;;;;16.80;12.80;;;;;;;4.12;71.23;101540.47;5119282;28;20661;-68
2021/01/03 08:52:06;;;;;;;15.37;12.13;;;;;;;4.12;71.29;101539.59;5119047;28;20425;-68
2021/01/03 08:54:31;;;;;;;13.63;10.10;;;;;;;4.51;69.28;101540.63;5119097;28;20470;-69
2021/01/03 08:57:00;;;;;;;12.37;10.30;;;;;;;3.98;71.87;101541.50;5118812;28;20786;-68
2021/01/03 08:59:25;;;;;;;14.53;11.37;;;;;;;4.51;70.30;101540.63;5118904;28;20178;-68
2021/01/03 09:01:51;;;;;;;14.07;11.30;;;;;;;4.47;70.94;101537.84;5118471;28;20413;-68
2021/01/03 09:04:20;;;;;;;15.43;11.43;;;;;;;4.31;70.53;101538.78;5118835;28;20224;-68
2021/01/03 09:06:57;;;;;;;14.77;11.40;;;;;;;4.16;71.31;101547.56;5118520;28;20182;-68
2021/01/03 09:09:26;;;;;;;13.13;10.30;;;;;;;4.81;68.59;101544.56;5118325;28;20721;-68
2021/01/03 09:11:56;;;;;;;12.87;10.30;;;;;;;4.19;70.77;101542.56;5118163;28;20444;-68
2021/01/03 09:14:26;;;;;;;13.17;10.20;;;;;;;4.59;69.11;101555.59;5117613;28;20447;-66
2021/01/03 09:16:56;;;;;;;14.13;10.47;;;;;;;4.53;70.20;101551.00;5118050;28;20421;-68
2021/01/03 09:19:26;;;;;;;16.37;11.20;;;;;;;4.31;70.24;101562.03;5117930;28;20421;-68
2021/01/03 09:21:57;;;;;;;13.67;10.20;;;;;;;5.03;67.77;101546.44;5118717;28;20505;-69
2021/01/03 09:24:32;;;;;;;12.20;8.60;;;;;;;4.04;70.05;101565.91;5117658;28;20538;-70
2021/01/03 09:26:59;;;;;;;11.00;9.13;;;;;;;4.77;67.23;101556.44;5118668;28;20527;-70
2021/01/03 09:29:31;;;;;;;13.67;9.70;;;;;;;4.78;67.84;101557.34;5117744;28;20432;-70
2021/01/03 09:31:56;;;;;;;12.40;10.43;;;;;;;4.41;69.61;101558.19;5117861;28;20504;-70
2021/01/03 09:34:28;;;;;;;11.30;9.67;;;;;;;4.30;68.70;101560.25;5118495;28;20750;-69
2021/01/03 09:37:21;;;;;;;11.90;9.30;;;;;;;5.06;65.99;101551.75;5118069;28;20176;-67
2021/01/03 09:40:21;;;;;;;9.80;8.80;;;;;;;4.83;67.29;101550.69;5118253;28;20409;-69
2021/01/03 09:42:59;;;;;;;9.40;7.83;;;;;;;4.84;65.67;101555.94;5117660;28;20885;-69
2021/01/03 09:45:49;;;;;;;9.50;8.17;;;;;;;6.27;61.38;101557.78;5117509;28;20461;-67
2021/01/03 09:48:36;;;;;;;8.87;7.97;;;;;;;6.55;60.50;101543.34;5118233;28;20413;-68
2021/01/03 09:51:10;;;;;;;8.60;7.73;;;;;;;6.29;61.05;101544.88;5117929;28;20409;-68
2021/01/03 09:53:38;;;;;;;8.10;6.40;;;;;;;5.98;60.13;101546.22;5117362;28;20413;-69
2021/01/03 09:56:06;;;;;;;8.60;7.10;;;;;;;8.41;54.18;101530.78;5117127;28;20472;-69
2021/01/03 09:58:42;;;;;;;7.17;6.43;;;;;;;7.71;55.34;101525.09;5117609;28;20409;-67
2021/01/03 10:01:23;;;;;;;6.50;5.90;;;;;;;8.20;53.10;101522.31;5117747;28;20419;-68
2021/01/03 10:03:49;;;;;;;6.50;5.90;;;;;;;6.70;57.07;101536.16;5117633;28;20453;-70
2021/01/03 10:06:21;;;;;;;6.47;5.73;;;;;;;7.74;54.65;101522.56;5117707;28;20408;-70
2021/01/03 10:08:47;;;;;;;7.40;5.70;;;;;;;8.24;52.55;101513.78;5118262;28;20563;-71
2021/01/03 10:11:32;;;;;;;5.70;5.20;;;;;;;8.51;50.85;101518.13;5118021;28;20500;-71
2021/01/03 10:14:00;;;;;;;6.17;5.57;;;;;;;9.89;48.02;101513.28;5117893;28;20399;-69
2021/01/03 10:16:28;;;;;;;5.90;5.30;;;;;;;9.63;47.07;101515.19;5117054;28;20400;-72
2021/01/03 10:18:54;;;;;;;6.00;5.40;;;;;;;9.92;45.94;101512.47;5106026;28;20743;-71
2021/01/03 10:21:37;;;;;;;5.20;4.70;;;;;;;6.69;56.13;101525.72;5112551;28;20476;-73
2021/01/03 10:24:12;;;;;;;6.43;5.77;;;;;;;8.60;52.43;101526.19;5117221;28;20227;-72
2021/01/03 10:26:37;;;;;;;6.73;6.13;;;;;;;8.75;51.54;101518.88;5117375;28;20412;-72
2021/01/03 10:29:03;;;;;;;7.53;6.83;;;;;;;10.70;47.88;101507.31;5117592;28;20789;-71
2021/01/03 10:31:44;;;;;;;7.40;6.80;;;;;;;11.26;46.48;101506.72;5117449;28;20437;-72
2021/01/03 10:34:10;;;;;;;7.90;7.10;;;;;;;11.27;46.79;101496.31;5117637;28;20417;-71
2021/01/03 10:36:36;;;;;;;8.97;6.90;;;;;;;10.32;47.80;101508.19;5117472;28;20664;-72
2021/01/03 10:39:03;;;;;;;7.13;6.50;;;;;;;10.61;47.95;101502.81;5117764;28;20410;-71
2021/01/03 10:41:30;;;;;;;6.90;5.83;;;;;;;7.65;54.74;101503.22;5117727;28;20413;-72
2021/01/03 10:43:56;;;;;;;7.30;6.60;;;;;;;7.41;57.05;101517.09;5117484;28;20457;-72
2021/01/03 10:46:21;;;;;;;6.43;5.83;;;;;;;6.39;59.18;101524.59;5118330;28;20653;-72
2021/01/03 10:48:47;;;;;;;5.67;5.17;;;;;;;6.36;59.38;101521.88;5117683;28;20791;-71
2021/01/03 10:51:12;;;;;;;6.93;6.33;;;;;;;7.35;57.36;101522.97;5117782;28;20164;-72
2021/01/03 10:53:37;;;;;;;7.90;6.57;;;;;;;7.05;58.17;101538.31;5118541;28;20164;-71
2021/01/03 10:56:03;;;;;;;4.17;3.87;;;;;;;5.64;61.31;101530.16;5117954;28;20180;-72
2021/01/03 10:58:28;;;;;;;5.80;5.30;;;;;;;6.76;59.11;101521.66;5118116;28;20183;-72
2021/01/03 11:00:53;;;;;;;5.30;4.90;;;;;;;5.95;60.15;101531.41;5117809;28;20219;-71
2021/01/03 11:03:19;;;;;;;5.27;4.77;;;;;;;5.59;61.46;101533.34;5117205;28;20440;-72
2021/01/03 11:05:44;;;;;;;5.47;4.97;;;;;;;6.23;59.63;101527.41;5116426;28;20200;-70
2021/01/03 11:08:09;;;;;;;4.80;4.40;;;;;;;5.99;60.31;101528.16;5117771;28;20297;-71
2021/01/03 11:10:35;;;;;;;3.70;3.40;;;;;;;5.54;60.77;101528.84;5118428;28;20172;-74
2021/01/03 11:13:00;;;;;;;5.83;4.20;;;;;;;5.69;61.03;101515.69;5121486;28;20171;-75
2021/01/03 11:15:25;;;;;;;5.00;4.00;;;;;;;5.23;61.70;101518.88;5122062;28;20199;-73
2021/01/03 11:17:51;;;;;;;4.23;3.83;;;;;;;5.85;60.23;101513.75;5122165;28;20186;-70
2021/01/03 11:20:16;;;;;;;4.10;3.70;;;;;;;4.98;62.02;101517.81;5121660;28;20195;-71
2021/01/03 11:22:41;;;;;;;4.70;4.30;;;;;;;5.56;61.07;101514.28;5121381;28;20175;-70
2021/01/03 11:25:07;;;;;;;6.27;4.47;;;;;;;5.18;61.95;101520.38;5120697;28;20231;-71
2021/01/03 11:27:32;;;;;;;4.43;4.03;;;;;;;4.91;62.11;101539.00;5121005;28;20534;-72
2021/01/03 11:29:58;;;;;;;4.77;4.27;;;;;;;5.21;61.87;101502.44;5121245;28;20231;-75
2021/01/03 11:32:25;;;;;;;4.37;3.97;;;;;;;5.07;61.23;101501.81;5121039;28;20179;-74
2021/01/03 11:34:51;;;;;;;4.57;4.13;;;;;;;4.72;63.51;101509.75;5121122;28;20262;-74
2021/01/03 11:37:21;;;;;;;4.40;4.00;;;;;;;5.06;62.32;101497.47;5121333;27;20492;-74